sensor_id;sensor_type;location;lat;lon;timestamp;temperature;humidity
15426;DHT22;7812;50.072;7.036;2023-03-01T00:01:08;-1.50;99.90
15426;DHT22;7812;50.072;7.036;2023-03-01T00:03:34;-1.70;99.90
15426;DHT22;7812;50.072;7.036;2023-03-01T00:06:01;-1.60;99.90
15426;DHT22;7812;50.072;7.036;2023-03-01T00:08:27;-1.50;99.90
15426;DHT22;7812;50.072;7.036;2023-03-01T00:13:31;-1.80;99.90
15426;DHT22;7812;50.072;7.036;2023-03-01T00:15:56;-1.70;99.90
15426;DHT22;7812;50.072;7.036;2023-03-01T00:18:22;-1.60;99.90
15426;DHT22;7812;50.072;7.036;2023-03-01T00:20:53;-1.50;99.90
15426;DHT22;7812;50.072;7.036;2023-03-01T00:23:20;-1.70;99.90
15426;DHT22;7812;50.072;7.036;2023-03-01T00:25:46;-1.70;99.90
15426;DHT22;7812;50.072;7.036;2023-03-01T00:28:12;-1.70;99.90
15426;DHT22;7812;50.072;7.036;2023-03-01T00:30:38;-1.60;99.90
15426;DHT22;7812;50.072;7.036;2023-03-01T00:33:03;-1.50;99.90
15426;DHT22;7812;50.072;7.036;2023-03-01T00:35:29;-1.50;99.90
15426;DHT22;7812;50.072;7.036;2023-03-01T00:37:57;-1.50;99.90
15426;DHT22;7812;50.072;7.036;2023-03-01T00:40:34;-1.50;99.90
15426;DHT22;7812;50.072;7.036;2023-03-01T00:43:00;-1.50;99.90
15426;DHT22;7812;50.072;7.036;2023-03-01T00:45:26;-1.50;99.90
15426;DHT22;7812;50.072;7.036;2023-03-01T00:47:52;-1.50;99.90
15426;DHT22;7812;50.072;7.036;2023-03-01T00:50:19;-1.40;99.90
15426;DHT22;7812;50.072;7.036;2023-03-01T00:52:45;-1.70;99.90
15426;DHT22;7812;50.072;7.036;2023-03-01T00:55:11;-1.60;99.90
15426;DHT22;7812;50.072;7.036;2023-03-01T00:57:37;-1.50;99.90
15426;DHT22;7812;50.072;7.036;2023-03-01T01:00:07;-1.40;99.90
15426;DHT22;7812;50.072;7.036;2023-03-01T01:02:33;-1.60;99.90
15426;DHT22;7812;50.072;7.036;2023-03-01T01:04:59;-1.70;99.90
15426;DHT22;7812;50.072;7.036;2023-03-01T01:07:25;-1.70;99.90
15426;DHT22;7812;50.072;7.036;2023-03-01T01:09:51;-1.80;99.90
15426;DHT22;7812;50.072;7.036;2023-03-01T01:12:16;-1.80;99.90
15426;DHT22;7812;50.072;7.036;2023-03-01T01:14:42;-1.70;99.90
15426;DHT22;7812;50.072;7.036;2023-03-01T01:17:08;-1.70;99.90
15426;DHT22;7812;50.072;7.036;2023-03-01T01:19:33;-1.60;99.90
15426;DHT22;7812;50.072;7.036;2023-03-01T01:21:59;-1.60;99.90
15426;DHT22;7812;50.072;7.036;2023-03-01T01:24:25;-1.80;99.90
15426;DHT22;7812;50.072;7.036;2023-03-01T01:26:50;-1.80;99.90
15426;DHT22;7812;50.072;7.036;2023-03-01T01:29:16;-1.90;99.90
15426;DHT22;7812;50.072;7.036;2023-03-01T01:31:42;-1.80;99.90
15426;DHT22;7812;50.072;7.036;2023-03-01T01:34:16;-1.80;99.90
15426;DHT22;7812;50.072;7.036;2023-03-01T01:36:42;-1.70;99.90
15426;DHT22;7812;50.072;7.036;2023-03-01T01:39:09;-1.60;99.90
15426;DHT22;7812;50.072;7.036;2023-03-01T01:41:40;-1.70;99.90
15426;DHT22;7812;50.072;7.036;2023-03-01T01:44:20;-1.60;99.90
15426;DHT22;7812;50.072;7.036;2023-03-01T01:47:19;-1.70;99.90
15426;DHT22;7812;50.072;7.036;2023-03-01T01:49:56;-1.70;99.90
15426;DHT22;7812;50.072;7.036;2023-03-01T01:52:42;-1.80;99.90
15426;DHT22;7812;50.072;7.036;2023-03-01T01:55:14;-1.90;99.90
15426;DHT22;7812;50.072;7.036;2023-03-01T01:57:44;-2.10;99.90
15426;DHT22;7812;50.072;7.036;2023-03-01T02:00:19;-2.10;99.90
15426;DHT22;7812;50.072;7.036;2023-03-01T02:02:47;-2.00;99.90
15426;DHT22;7812;50.072;7.036;2023-03-01T02:07:43;-1.80;99.90
15426;DHT22;7812;50.072;7.036;2023-03-01T02:10:09;-1.80;99.90
15426;DHT22;7812;50.072;7.036;2023-03-01T02:12:36;-1.80;99.90
15426;DHT22;7812;50.072;7.036;2023-03-01T02:15:02;-1.80;99.90
15426;DHT22;7812;50.072;7.036;2023-03-01T02:17:28;-1.70;99.90
15426;DHT22;7812;50.072;7.036;2023-03-01T02:20:00;-1.60;99.90
15426;DHT22;7812;50.072;7.036;2023-03-01T02:22:31;-1.80;99.90
15426;DHT22;7812;50.072;7.036;2023-03-01T02:30:45;-1.60;99.90
15426;DHT22;7812;50.072;7.036;2023-03-01T02:33:32;-1.60;99.90
15426;DHT22;7812;50.072;7.036;2023-03-01T02:36:10;-1.50;99.90
15426;DHT22;7812;50.072;7.036;2023-03-01T02:38:42;-1.40;99.90
15426;DHT22;7812;50.072;7.036;2023-03-01T02:41:08;-1.40;99.90
15426;DHT22;7812;50.072;7.036;2023-03-01T02:43:36;-1.70;99.90
15426;DHT22;7812;50.072;7.036;2023-03-01T02:46:06;-1.60;99.90
15426;DHT22;7812;50.072;7.036;2023-03-01T02:54:25;-1.60;99.90
15426;DHT22;7812;50.072;7.036;2023-03-01T02:56:53;-1.40;99.90
15426;DHT22;7812;50.072;7.036;2023-03-01T02:59:21;-1.40;99.90
15426;DHT22;7812;50.072;7.036;2023-03-01T03:01:47;-1.40;99.90
15426;DHT22;7812;50.072;7.036;2023-03-01T03:04:17;-1.60;99.90
15426;DHT22;7812;50.072;7.036;2023-03-01T03:06:45;-1.70;99.90
15426;DHT22;7812;50.072;7.036;2023-03-01T03:09:12;-1.70;99.90
15426;DHT22;7812;50.072;7.036;2023-03-01T03:11:38;-1.70;99.90
15426;DHT22;7812;50.072;7.036;2023-03-01T03:14:14;-1.50;99.90
15426;DHT22;7812;50.072;7.036;2023-03-01T03:16:46;-1.40;99.90
15426;DHT22;7812;50.072;7.036;2023-03-01T03:19:13;-1.30;99.90
15426;DHT22;7812;50.072;7.036;2023-03-01T03:21:39;-1.40;99.90
15426;DHT22;7812;50.072;7.036;2023-03-01T03:24:05;-1.40;99.90
15426;DHT22;7812;50.072;7.036;2023-03-01T03:26:31;-1.30;99.90
15426;DHT22;7812;50.072;7.036;2023-03-01T03:28:57;-1.10;99.90
15426;DHT22;7812;50.072;7.036;2023-03-01T03:31:22;-1.30;99.90
15426;DHT22;7812;50.072;7.036;2023-03-01T03:33:48;-1.20;99.90
15426;DHT22;7812;50.072;7.036;2023-03-01T03:36:21;-1.20;99.90
15426;DHT22;7812;50.072;7.036;2023-03-01T03:38:47;-1.20;99.90
15426;DHT22;7812;50.072;7.036;2023-03-01T03:41:14;-1.10;99.90
15426;DHT22;7812;50.072;7.036;2023-03-01T03:43:41;-1.10;99.90
15426;DHT22;7812;50.072;7.036;2023-03-01T03:46:10;-1.20;99.90
15426;DHT22;7812;50.072;7.036;2023-03-01T03:48:38;-1.30;99.90
15426;DHT22;7812;50.072;7.036;2023-03-01T03:51:04;-1.30;99.90
15426;DHT22;7812;50.072;7.036;2023-03-01T03:53:33;-1.30;99.90
15426;DHT22;7812;50.072;7.036;2023-03-01T03:55:59;-1.20;99.90
15426;DHT22;7812;50.072;7.036;2023-03-01T03:58:25;-1.40;99.90
15426;DHT22;7812;50.072;7.036;2023-03-01T04:00:54;-1.30;99.90
15426;DHT22;7812;50.072;7.036;2023-03-01T04:03:22;-1.50;99.90
15426;DHT22;7812;50.072;7.036;2023-03-01T04:05:49;-1.50;99.90
15426;DHT22;7812;50.072;7.036;2023-03-01T04:08:19;-1.50;99.90
15426;DHT22;7812;50.072;7.036;2023-03-01T04:10:48;-1.30;99.90
15426;DHT22;7812;50.072;7.036;2023-03-01T04:13:17;-1.30;99.90
15426;DHT22;7812;50.072;7.036;2023-03-01T04:15:54;-1.30;99.90
15426;DHT22;7812;50.072;7.036;2023-03-01T04:18:22;-1.30;99.90
15426;DHT22;7812;50.072;7.036;2023-03-01T04:20:50;-1.70;99.90
15426;DHT22;7812;50.072;7.036;2023-03-01T04:23:19;-1.60;99.90
15426;DHT22;7812;50.072;7.036;2023-03-01T04:26:06;-1.50;99.90
15426;DHT22;7812;50.072;7.036;2023-03-01T04:28:36;-1.50;99.90
15426;DHT22;7812;50.072;7.036;2023-03-01T04:31:21;-1.40;99.90
15426;DHT22;7812;50.072;7.036;2023-03-01T04:33:54;-1.30;99.90
15426;DHT22;7812;50.072;7.036;2023-03-01T04:36:23;-1.30;99.90
15426;DHT22;7812;50.072;7.036;2023-03-01T04:38:49;-1.40;99.90
15426;DHT22;7812;50.072;7.036;2023-03-01T04:41:19;-1.40;99.90
15426;DHT22;7812;50.072;7.036;2023-03-01T04:43:45;-1.40;99.90
15426;DHT22;7812;50.072;7.036;2023-03-01T04:46:13;-1.50;99.90
15426;DHT22;7812;50.072;7.036;2023-03-01T04:48:40;-1.40;99.90
15426;DHT22;7812;50.072;7.036;2023-03-01T04:51:07;-1.30;99.90
15426;DHT22;7812;50.072;7.036;2023-03-01T04:53:35;-1.30;99.90
15426;DHT22;7812;50.072;7.036;2023-03-01T04:56:03;-1.40;99.90
15426;DHT22;7812;50.072;7.036;2023-03-01T04:58:29;-1.60;99.90
15426;DHT22;7812;50.072;7.036;2023-03-01T05:00:56;-1.70;99.90
15426;DHT22;7812;50.072;7.036;2023-03-01T05:03:22;-1.80;99.90
15426;DHT22;7812;50.072;7.036;2023-03-01T05:05:50;-1.80;99.90
15426;DHT22;7812;50.072;7.036;2023-03-01T05:08:16;-1.70;99.90
15426;DHT22;7812;50.072;7.036;2023-03-01T05:10:49;-1.60;99.90
15426;DHT22;7812;50.072;7.036;2023-03-01T05:13:15;-1.70;99.90
15426;DHT22;7812;50.072;7.036;2023-03-01T05:15:57;-1.60;99.90
15426;DHT22;7812;50.072;7.036;2023-03-01T05:18:24;-1.70;99.90
15426;DHT22;7812;50.072;7.036;2023-03-01T05:20:54;-1.70;99.90
15426;DHT22;7812;50.072;7.036;2023-03-01T05:23:22;-1.60;99.90
15426;DHT22;7812;50.072;7.036;2023-03-01T05:25:48;-1.60;99.90
15426;DHT22;7812;50.072;7.036;2023-03-01T05:28:15;-1.70;99.90
15426;DHT22;7812;50.072;7.036;2023-03-01T05:30:41;-1.60;99.90
15426;DHT22;7812;50.072;7.036;2023-03-01T05:33:08;-1.60;99.90
15426;DHT22;7812;50.072;7.036;2023-03-01T05:35:42;-1.50;99.90
15426;DHT22;7812;50.072;7.036;2023-03-01T05:38:12;-1.50;99.90
15426;DHT22;7812;50.072;7.036;2023-03-01T05:40:45;-1.60;99.90
15426;DHT22;7812;50.072;7.036;2023-03-01T05:43:12;-1.70;99.90
15426;DHT22;7812;50.072;7.036;2023-03-01T05:45:39;-1.70;99.90
15426;DHT22;7812;50.072;7.036;2023-03-01T05:48:07;-1.70;99.90
15426;DHT22;7812;50.072;7.036;2023-03-01T05:50:36;-1.70;99.90
15426;DHT22;7812;50.072;7.036;2023-03-01T05:53:11;-1.70;99.90
15426;DHT22;7812;50.072;7.036;2023-03-01T05:55:38;-1.80;99.90
15426;DHT22;7812;50.072;7.036;2023-03-01T05:58:07;-1.90;99.90
15426;DHT22;7812;50.072;7.036;2023-03-01T06:00:34;-1.80;99.90
15426;DHT22;7812;50.072;7.036;2023-03-01T06:03:00;-1.80;99.90
15426;DHT22;7812;50.072;7.036;2023-03-01T06:05:27;-1.70;99.90
15426;DHT22;7812;50.072;7.036;2023-03-01T06:07:53;-1.90;99.90
15426;DHT22;7812;50.072;7.036;2023-03-01T06:10:20;-1.90;99.90
15426;DHT22;7812;50.072;7.036;2023-03-01T06:12:46;-1.90;99.90
15426;DHT22;7812;50.072;7.036;2023-03-01T06:15:15;-1.80;99.90
15426;DHT22;7812;50.072;7.036;2023-03-01T06:17:42;-1.80;99.90
15426;DHT22;7812;50.072;7.036;2023-03-01T06:20:18;-1.80;99.90
15426;DHT22;7812;50.072;7.036;2023-03-01T06:22:44;-1.70;99.90
15426;DHT22;7812;50.072;7.036;2023-03-01T06:25:11;-1.70;99.90
15426;DHT22;7812;50.072;7.036;2023-03-01T06:27:38;-1.80;99.90
15426;DHT22;7812;50.072;7.036;2023-03-01T06:30:05;-1.90;99.90
15426;DHT22;7812;50.072;7.036;2023-03-01T06:32:32;-1.90;99.90
15426;DHT22;7812;50.072;7.036;2023-03-01T06:34:58;-1.80;99.90
15426;DHT22;7812;50.072;7.036;2023-03-01T06:37:27;-1.70;99.90
15426;DHT22;7812;50.072;7.036;2023-03-01T06:39:52;-1.80;99.90
15426;DHT22;7812;50.072;7.036;2023-03-01T06:42:18;-1.70;99.90
15426;DHT22;7812;50.072;7.036;2023-03-01T06:44:44;-1.70;99.90
15426;DHT22;7812;50.072;7.036;2023-03-01T06:47:11;-1.70;99.90
15426;DHT22;7812;50.072;7.036;2023-03-01T06:49:37;-1.70;99.90
15426;DHT22;7812;50.072;7.036;2023-03-01T06:52:03;-1.60;99.90
15426;DHT22;7812;50.072;7.036;2023-03-01T06:54:29;-1.50;99.90
15426;DHT22;7812;50.072;7.036;2023-03-01T06:56:54;-1.40;99.90
15426;DHT22;7812;50.072;7.036;2023-03-01T06:59:20;-1.30;99.90
15426;DHT22;7812;50.072;7.036;2023-03-01T07:01:46;-1.30;99.90
15426;DHT22;7812;50.072;7.036;2023-03-01T07:04:13;-1.20;99.90
15426;DHT22;7812;50.072;7.036;2023-03-01T07:06:39;-0.80;99.90
15426;DHT22;7812;50.072;7.036;2023-03-01T07:09:04;-0.20;99.90
15426;DHT22;7812;50.072;7.036;2023-03-01T07:11:30;0.40;99.90
15426;DHT22;7812;50.072;7.036;2023-03-01T07:13:56;1.20;99.90
15426;DHT22;7812;50.072;7.036;2023-03-01T07:16:21;1.50;99.90
15426;DHT22;7812;50.072;7.036;2023-03-01T07:18:47;1.20;99.90
15426;DHT22;7812;50.072;7.036;2023-03-01T07:21:15;0.90;99.90
15426;DHT22;7812;50.072;7.036;2023-03-01T07:23:41;0.90;99.90
15426;DHT22;7812;50.072;7.036;2023-03-01T07:26:07;1.00;99.90
15426;DHT22;7812;50.072;7.036;2023-03-01T07:28:33;0.70;99.90
15426;DHT22;7812;50.072;7.036;2023-03-01T07:31:04;0.90;99.90
15426;DHT22;7812;50.072;7.036;2023-03-01T07:33:31;0.80;99.90
15426;DHT22;7812;50.072;7.036;2023-03-01T07:36:02;1.40;99.90
15426;DHT22;7812;50.072;7.036;2023-03-01T07:38:29;2.00;99.90
15426;DHT22;7812;50.072;7.036;2023-03-01T07:40:58;2.20;99.90
15426;DHT22;7812;50.072;7.036;2023-03-01T07:43:24;2.70;99.90
15426;DHT22;7812;50.072;7.036;2023-03-01T07:45:50;3.00;99.90
15426;DHT22;7812;50.072;7.036;2023-03-01T07:48:16;3.00;99.90
15426;DHT22;7812;50.072;7.036;2023-03-01T07:50:41;3.10;99.90
15426;DHT22;7812;50.072;7.036;2023-03-01T07:53:07;3.30;99.90
15426;DHT22;7812;50.072;7.036;2023-03-01T07:55:33;3.20;99.90
15426;DHT22;7812;50.072;7.036;2023-03-01T07:57:59;3.20;99.90
15426;DHT22;7812;50.072;7.036;2023-03-01T08:00:24;3.40;99.90
15426;DHT22;7812;50.072;7.036;2023-03-01T08:02:50;3.10;99.90
15426;DHT22;7812;50.072;7.036;2023-03-01T08:05:16;3.40;99.90
15426;DHT22;7812;50.072;7.036;2023-03-01T08:07:42;3.30;99.90
15426;DHT22;7812;50.072;7.036;2023-03-01T08:10:08;3.30;99.90
15426;DHT22;7812;50.072;7.036;2023-03-01T08:12:34;3.90;99.90
15426;DHT22;7812;50.072;7.036;2023-03-01T08:14:59;4.50;99.90
15426;DHT22;7812;50.072;7.036;2023-03-01T08:17:25;3.60;99.90
15426;DHT22;7812;50.072;7.036;2023-03-01T08:19:50;2.90;99.90
15426;DHT22;7812;50.072;7.036;2023-03-01T08:22:16;3.50;99.90
15426;DHT22;7812;50.072;7.036;2023-03-01T08:24:42;4.20;99.90
15426;DHT22;7812;50.072;7.036;2023-03-01T08:27:07;5.00;99.90
15426;DHT22;7812;50.072;7.036;2023-03-01T08:29:34;4.40;99.90
15426;DHT22;7812;50.072;7.036;2023-03-01T08:32:00;4.50;99.90
15426;DHT22;7812;50.072;7.036;2023-03-01T08:34:25;4.10;99.90
15426;DHT22;7812;50.072;7.036;2023-03-01T08:36:52;3.50;99.90
15426;DHT22;7812;50.072;7.036;2023-03-01T08:39:19;3.70;99.90
15426;DHT22;7812;50.072;7.036;2023-03-01T08:41:46;3.80;99.90
15426;DHT22;7812;50.072;7.036;2023-03-01T08:44:13;3.60;99.90
15426;DHT22;7812;50.072;7.036;2023-03-01T08:46:41;3.10;99.90
15426;DHT22;7812;50.072;7.036;2023-03-01T08:49:33;3.10;99.90
15426;DHT22;7812;50.072;7.036;2023-03-01T08:51:58;3.50;99.90
15426;DHT22;7812;50.072;7.036;2023-03-01T08:54:25;3.50;99.90
15426;DHT22;7812;50.072;7.036;2023-03-01T08:56:50;3.50;99.90
15426;DHT22;7812;50.072;7.036;2023-03-01T08:59:17;2.50;99.90
15426;DHT22;7812;50.072;7.036;2023-03-01T09:01:43;2.50;99.90
15426;DHT22;7812;50.072;7.036;2023-03-01T09:04:09;3.00;99.90
15426;DHT22;7812;50.072;7.036;2023-03-01T09:06:35;3.40;99.90
15426;DHT22;7812;50.072;7.036;2023-03-01T09:09:03;3.40;99.90
15426;DHT22;7812;50.072;7.036;2023-03-01T09:11:29;3.30;99.90
15426;DHT22;7812;50.072;7.036;2023-03-01T09:13:55;3.10;99.90
15426;DHT22;7812;50.072;7.036;2023-03-01T09:16:22;3.30;99.90
15426;DHT22;7812;50.072;7.036;2023-03-01T09:18:52;3.00;99.90
15426;DHT22;7812;50.072;7.036;2023-03-01T09:21:20;3.30;99.90
15426;DHT22;7812;50.072;7.036;2023-03-01T09:23:47;3.40;99.90
15426;DHT22;7812;50.072;7.036;2023-03-01T09:26:15;3.60;99.90
15426;DHT22;7812;50.072;7.036;2023-03-01T09:28:45;4.70;99.90
15426;DHT22;7812;50.072;7.036;2023-03-01T09:31:14;5.90;99.90
15426;DHT22;7812;50.072;7.036;2023-03-01T09:33:41;5.00;99.90
15426;DHT22;7812;50.072;7.036;2023-03-01T09:36:11;5.50;99.90
15426;DHT22;7812;50.072;7.036;2023-03-01T09:38:37;6.00;99.90
15426;DHT22;7812;50.072;7.036;2023-03-01T09:41:10;6.40;99.90
15426;DHT22;7812;50.072;7.036;2023-03-01T09:43:59;6.40;99.90
15426;DHT22;7812;50.072;7.036;2023-03-01T09:46:40;6.50;99.90
15426;DHT22;7812;50.072;7.036;2023-03-01T09:49:17;8.10;99.90
15426;DHT22;7812;50.072;7.036;2023-03-01T09:51:54;8.40;99.90
15426;DHT22;7812;50.072;7.036;2023-03-01T09:54:20;9.00;99.90
15426;DHT22;7812;50.072;7.036;2023-03-01T09:56:57;10.40;99.90
15426;DHT22;7812;50.072;7.036;2023-03-01T10:02:21;9.50;99.90
15426;DHT22;7812;50.072;7.036;2023-03-01T10:10:28;8.90;99.90
15426;DHT22;7812;50.072;7.036;2023-03-01T10:12:56;9.30;99.90
15426;DHT22;7812;50.072;7.036;2023-03-01T10:15:39;10.10;99.90
15426;DHT22;7812;50.072;7.036;2023-03-01T10:18:14;11.40;99.90
15426;DHT22;7812;50.072;7.036;2023-03-01T10:23:20;10.00;99.90
15426;DHT22;7812;50.072;7.036;2023-03-01T10:31:18;12.10;99.80
15426;DHT22;7812;50.072;7.036;2023-03-01T10:33:44;13.10;95.90
15426;DHT22;7812;50.072;7.036;2023-03-01T10:36:10;11.00;95.60
15426;DHT22;7812;50.072;7.036;2023-03-01T10:38:56;10.10;99.70
15426;DHT22;7812;50.072;7.036;2023-03-01T10:41:24;9.80;99.90
15426;DHT22;7812;50.072;7.036;2023-03-01T10:43:56;9.00;99.90
15426;DHT22;7812;50.072;7.036;2023-03-01T10:46:31;9.60;99.90
15426;DHT22;7812;50.072;7.036;2023-03-01T10:49:22;9.90;99.90
15426;DHT22;7812;50.072;7.036;2023-03-01T10:51:50;11.30;99.90
15426;DHT22;7812;50.072;7.036;2023-03-01T10:54:36;11.60;98.50
15426;DHT22;7812;50.072;7.036;2023-03-01T10:57:04;10.60;97.90
15426;DHT22;7812;50.072;7.036;2023-03-01T11:02:17;9.40;99.90
15426;DHT22;7812;50.072;7.036;2023-03-01T11:07:27;10.10;99.90
15426;DHT22;7812;50.072;7.036;2023-03-01T11:09:53;10.50;99.20
15426;DHT22;7812;50.072;7.036;2023-03-01T11:12:20;10.70;98.60
15426;DHT22;7812;50.072;7.036;2023-03-01T11:14:53;9.10;99.90
15426;DHT22;7812;50.072;7.036;2023-03-01T11:17:30;9.00;99.90
15426;DHT22;7812;50.072;7.036;2023-03-01T11:22:53;9.90;99.90
15426;DHT22;7812;50.072;7.036;2023-03-01T11:25:25;8.40;99.90
15426;DHT22;7812;50.072;7.036;2023-03-01T11:27:52;9.40;99.90
15426;DHT22;7812;50.072;7.036;2023-03-01T11:30:21;9.70;99.90
15426;DHT22;7812;50.072;7.036;2023-03-01T11:36:00;10.40;98.90
15426;DHT22;7812;50.072;7.036;2023-03-01T11:38:28;9.40;99.90
15426;DHT22;7812;50.072;7.036;2023-03-01T11:41:15;10.30;99.90
15426;DHT22;7812;50.072;7.036;2023-03-01T12:05:48;8.90;99.90
15426;DHT22;7812;50.072;7.036;2023-03-01T12:11:49;10.70;99.90
15426;DHT22;7812;50.072;7.036;2023-03-01T12:26:11;10.90;98.40
15426;DHT22;7812;50.072;7.036;2023-03-01T12:39:24;9.10;99.90
15426;DHT22;7812;50.072;7.036;2023-03-01T12:52:08;9.40;99.90
15426;DHT22;7812;50.072;7.036;2023-03-01T12:54:37;9.30;99.90
15426;DHT22;7812;50.072;7.036;2023-03-01T12:57:37;10.10;99.90
15426;DHT22;7812;50.072;7.036;2023-03-01T13:03:31;9.80;99.90
15426;DHT22;7812;50.072;7.036;2023-03-01T13:11:17;11.30;98.30
15426;DHT22;7812;50.072;7.036;2023-03-01T13:13:44;12.10;97.10
15426;DHT22;7812;50.072;7.036;2023-03-01T13:19:16;12.00;96.40
15426;DHT22;7812;50.072;7.036;2023-03-01T13:21:43;10.50;98.00
15426;DHT22;7812;50.072;7.036;2023-03-01T13:24:39;11.20;96.80
15426;DHT22;7812;50.072;7.036;2023-03-01T13:29:53;10.60;97.70
15426;DHT22;7812;50.072;7.036;2023-03-01T13:34:53;9.50;99.30
15426;DHT22;7812;50.072;7.036;2023-03-01T13:37:31;9.70;99.40
15426;DHT22;7812;50.072;7.036;2023-03-01T13:40:00;10.00;98.20
15426;DHT22;7812;50.072;7.036;2023-03-01T13:42:43;10.00;98.80
15426;DHT22;7812;50.072;7.036;2023-03-01T13:47:47;9.80;98.80
15426;DHT22;7812;50.072;7.036;2023-03-01T13:50:23;9.60;99.30
15426;DHT22;7812;50.072;7.036;2023-03-01T13:53:05;9.50;99.90
15426;DHT22;7812;50.072;7.036;2023-03-01T13:55:40;9.50;99.50
15426;DHT22;7812;50.072;7.036;2023-03-01T14:00:46;9.20;99.90
15426;DHT22;7812;50.072;7.036;2023-03-01T14:03:19;9.20;99.90
15426;DHT22;7812;50.072;7.036;2023-03-01T14:08:28;9.10;99.90
15426;DHT22;7812;50.072;7.036;2023-03-01T14:14:23;9.00;99.90
15426;DHT22;7812;50.072;7.036;2023-03-01T14:19:25;8.60;99.90
15426;DHT22;7812;50.072;7.036;2023-03-01T14:22:25;8.70;99.90
15426;DHT22;7812;50.072;7.036;2023-03-01T14:24:57;8.70;99.90
15426;DHT22;7812;50.072;7.036;2023-03-01T14:27:26;8.50;99.60
15426;DHT22;7812;50.072;7.036;2023-03-01T14:29:59;8.60;99.10
15426;DHT22;7812;50.072;7.036;2023-03-01T14:32:28;7.90;99.90
15426;DHT22;7812;50.072;7.036;2023-03-01T14:34:54;8.00;99.90
15426;DHT22;7812;50.072;7.036;2023-03-01T14:37:29;8.20;99.90
15426;DHT22;7812;50.072;7.036;2023-03-01T14:39:55;8.40;99.90
15426;DHT22;7812;50.072;7.036;2023-03-01T14:42:23;8.00;99.90
15426;DHT22;7812;50.072;7.036;2023-03-01T14:44:51;8.10;99.60
15426;DHT22;7812;50.072;7.036;2023-03-01T14:47:28;8.10;99.30
15426;DHT22;7812;50.072;7.036;2023-03-01T14:50:05;7.90;99.90
15426;DHT22;7812;50.072;7.036;2023-03-01T14:52:37;7.80;99.10
15426;DHT22;7812;50.072;7.036;2023-03-01T14:55:07;7.80;99.00
15426;DHT22;7812;50.072;7.036;2023-03-01T14:57:43;7.70;98.70
15426;DHT22;7812;50.072;7.036;2023-03-01T15:00:21;7.90;98.70
15426;DHT22;7812;50.072;7.036;2023-03-01T15:02:49;7.90;99.20
15426;DHT22;7812;50.072;7.036;2023-03-01T15:05:18;7.80;98.60
15426;DHT22;7812;50.072;7.036;2023-03-01T15:07:45;7.70;99.20
15426;DHT22;7812;50.072;7.036;2023-03-01T15:10:30;7.70;98.80
15426;DHT22;7812;50.072;7.036;2023-03-01T15:12:56;7.70;99.10
15426;DHT22;7812;50.072;7.036;2023-03-01T15:17:58;7.60;99.30
15426;DHT22;7812;50.072;7.036;2023-03-01T15:20:26;7.40;99.10
15426;DHT22;7812;50.072;7.036;2023-03-01T15:22:56;7.40;99.40
15426;DHT22;7812;50.072;7.036;2023-03-01T15:25:25;7.70;99.90
15426;DHT22;7812;50.072;7.036;2023-03-01T15:27:53;7.70;99.80
15426;DHT22;7812;50.072;7.036;2023-03-01T15:30:35;7.70;99.80
15426;DHT22;7812;50.072;7.036;2023-03-01T15:35:53;7.70;99.90
15426;DHT22;7812;50.072;7.036;2023-03-01T15:40:54;7.40;99.90
15426;DHT22;7812;50.072;7.036;2023-03-01T15:46:04;7.30;99.90
15426;DHT22;7812;50.072;7.036;2023-03-01T15:48:30;7.30;99.90
15426;DHT22;7812;50.072;7.036;2023-03-01T15:50:59;7.30;99.90
15426;DHT22;7812;50.072;7.036;2023-03-01T15:53:27;7.30;99.90
15426;DHT22;7812;50.072;7.036;2023-03-01T15:55:53;7.20;99.90
15426;DHT22;7812;50.072;7.036;2023-03-01T15:58:24;7.20;99.90
15426;DHT22;7812;50.072;7.036;2023-03-01T16:00:50;7.10;99.90
15426;DHT22;7812;50.072;7.036;2023-03-01T16:03:21;7.00;99.90
15426;DHT22;7812;50.072;7.036;2023-03-01T16:05:48;7.10;99.90
15426;DHT22;7812;50.072;7.036;2023-03-01T16:08:16;7.10;99.90
15426;DHT22;7812;50.072;7.036;2023-03-01T16:10:42;7.00;99.90
15426;DHT22;7812;50.072;7.036;2023-03-01T16:13:14;7.00;99.90
15426;DHT22;7812;50.072;7.036;2023-03-01T16:15:40;7.00;99.90
15426;DHT22;7812;50.072;7.036;2023-03-01T16:18:06;7.00;99.90
15426;DHT22;7812;50.072;7.036;2023-03-01T16:20:33;6.90;99.90
15426;DHT22;7812;50.072;7.036;2023-03-01T16:23:08;6.90;99.90
15426;DHT22;7812;50.072;7.036;2023-03-01T16:25:34;6.80;99.90
15426;DHT22;7812;50.072;7.036;2023-03-01T16:28:01;6.80;99.90
15426;DHT22;7812;50.072;7.036;2023-03-01T16:30:30;6.70;99.90
15426;DHT22;7812;50.072;7.036;2023-03-01T16:32:56;6.70;99.90
15426;DHT22;7812;50.072;7.036;2023-03-01T16:35:22;6.70;99.90
15426;DHT22;7812;50.072;7.036;2023-03-01T16:37:49;6.70;99.90
15426;DHT22;7812;50.072;7.036;2023-03-01T16:40:26;6.70;99.90
15426;DHT22;7812;50.072;7.036;2023-03-01T16:42:54;6.60;99.90
15426;DHT22;7812;50.072;7.036;2023-03-01T16:45:27;6.50;99.90
15426;DHT22;7812;50.072;7.036;2023-03-01T16:47:58;6.50;99.90
15426;DHT22;7812;50.072;7.036;2023-03-01T16:50:24;6.50;99.90
15426;DHT22;7812;50.072;7.036;2023-03-01T16:52:50;6.50;99.90
15426;DHT22;7812;50.072;7.036;2023-03-01T16:55:16;6.40;99.90
15426;DHT22;7812;50.072;7.036;2023-03-01T16:57:42;6.30;99.90
15426;DHT22;7812;50.072;7.036;2023-03-01T17:00:08;6.20;99.90
15426;DHT22;7812;50.072;7.036;2023-03-01T17:02:35;6.10;99.90
15426;DHT22;7812;50.072;7.036;2023-03-01T17:05:01;6.00;99.90
15426;DHT22;7812;50.072;7.036;2023-03-01T17:07:29;6.00;99.90
15426;DHT22;7812;50.072;7.036;2023-03-01T17:10:01;5.90;99.90
15426;DHT22;7812;50.072;7.036;2023-03-01T17:12:27;5.70;99.90
15426;DHT22;7812;50.072;7.036;2023-03-01T17:14:53;5.70;99.90
15426;DHT22;7812;50.072;7.036;2023-03-01T17:17:18;5.50;99.90
15426;DHT22;7812;50.072;7.036;2023-03-01T17:19:44;5.40;99.90
15426;DHT22;7812;50.072;7.036;2023-03-01T17:22:11;5.20;99.90
15426;DHT22;7812;50.072;7.036;2023-03-01T17:24:39;5.00;99.90
15426;DHT22;7812;50.072;7.036;2023-03-01T17:27:05;4.90;99.90
15426;DHT22;7812;50.072;7.036;2023-03-01T17:29:31;4.80;99.90
15426;DHT22;7812;50.072;7.036;2023-03-01T17:31:57;4.60;99.90
15426;DHT22;7812;50.072;7.036;2023-03-01T17:34:23;4.50;99.90
15426;DHT22;7812;50.072;7.036;2023-03-01T17:36:49;4.50;99.90
15426;DHT22;7812;50.072;7.036;2023-03-01T17:39:20;4.40;99.90
15426;DHT22;7812;50.072;7.036;2023-03-01T17:41:50;4.30;99.90
15426;DHT22;7812;50.072;7.036;2023-03-01T17:44:16;4.30;99.90
15426;DHT22;7812;50.072;7.036;2023-03-01T17:46:42;4.20;99.90
15426;DHT22;7812;50.072;7.036;2023-03-01T17:49:08;4.10;99.90
15426;DHT22;7812;50.072;7.036;2023-03-01T17:51:33;4.00;99.90
15426;DHT22;7812;50.072;7.036;2023-03-01T17:53:59;3.90;99.90
15426;DHT22;7812;50.072;7.036;2023-03-01T17:56:24;3.80;99.90
15426;DHT22;7812;50.072;7.036;2023-03-01T17:58:51;3.60;99.90
15426;DHT22;7812;50.072;7.036;2023-03-01T18:01:18;3.40;99.90
15426;DHT22;7812;50.072;7.036;2023-03-01T18:03:44;3.40;99.90
15426;DHT22;7812;50.072;7.036;2023-03-01T18:06:15;3.30;99.90
15426;DHT22;7812;50.072;7.036;2023-03-01T18:08:41;3.20;99.90
15426;DHT22;7812;50.072;7.036;2023-03-01T18:11:08;3.20;99.90
15426;DHT22;7812;50.072;7.036;2023-03-01T18:13:34;3.10;99.90
15426;DHT22;7812;50.072;7.036;2023-03-01T18:16:04;3.00;99.90
15426;DHT22;7812;50.072;7.036;2023-03-01T18:18:30;2.90;99.90
15426;DHT22;7812;50.072;7.036;2023-03-01T18:20:57;2.90;99.90
15426;DHT22;7812;50.072;7.036;2023-03-01T18:23:23;2.90;99.90
15426;DHT22;7812;50.072;7.036;2023-03-01T18:25:49;2.80;99.90
15426;DHT22;7812;50.072;7.036;2023-03-01T18:28:15;2.70;99.90
15426;DHT22;7812;50.072;7.036;2023-03-01T18:30:42;2.60;99.90